^^
Station Historical Data
Daily Summary for February 16, 2021 Units:  English    Metric   Both
Daily Weekly Monthly Yearly
  High: Low: Average:
Temperature: 23.1 °F -1.1 °F 13.9 °F
Dew Point: 14.8 °F -7.1 °F 9.1 °F
Humidity: 89% 66% 81%
Wind Speed: 9mph 1mph 4.7mph
Wind Gust: 16mph - -
Wind- - SSW
Pressure: 30.24 in 29.88 in -
Precipitation: 0.47 in    
 
 
Tabular Data for February 16, 2021
Time Temperature Dew Point Pressure Wind Wind Speed Wind Gust Humidity Rainfall Rate (Hourly) solar
00:00 14.8 °F 11.6 °F 30.02 in North 4 mph 5 mph 87% 0.00 in 0 W/m2
00:05 14.9 °F 12 °F 30.02 in ENE 5 mph 5 mph 88% 0.00 in 0 W/m2
00:10 15 °F 12.1 °F 30.02 in North 5 mph 5 mph 88% 0.05 in 0 W/m2
00:15 15 °F 12.1 °F 30.03 in NE 5 mph 7 mph 88% 0.05 in 0 W/m2
00:20 15.1 °F 12.2 °F 30.02 in North 4 mph 4 mph 88% 0.05 in 0 W/m2
00:25 15 °F 12.1 °F 30.01 in East 4 mph 9 mph 88% 0.04 in 0 W/m2
00:30 15 °F 12.1 °F 29.99 in NNE 5 mph 7 mph 88% 0.04 in 0 W/m2
00:35 15.1 °F 12.2 °F 29.99 in NNE 5 mph 8 mph 88% 0.04 in 0 W/m2
00:40 15 °F 12.1 °F 29.97 in NNE 5 mph 5 mph 88% 0.05 in 0 W/m2
00:45 15.1 °F 12.2 °F 29.95 in NE 5 mph 5 mph 88% 0.05 in 0 W/m2
00:50 15.1 °F 12.2 °F 29.94 in NE 6 mph 6 mph 88% 0.05 in 0 W/m2
00:55 15.1 °F 12.2 °F 29.94 in NE 7 mph 7 mph 88% 0.04 in 0 W/m2
01:00 15.1 °F 12.2 °F 29.95 in East 7 mph 10 mph 88% 0.04 in 0 W/m2
01:05 15.2 °F 12.3 °F 29.96 in NNE 6 mph 10 mph 88% 0.06 in 0 W/m2
01:10 15.3 °F 12.4 °F 29.96 in NNE 6 mph 6 mph 88% 0.06 in 0 W/m2
01:15 15.4 °F 12.5 °F 29.94 in North 5 mph 8 mph 88% 0.07 in 0 W/m2
01:20 15.6 °F 12.7 °F 29.94 in NNE 4 mph 8 mph 88% 0.09 in 0 W/m2
01:25 15.8 °F 12.9 °F 29.94 in ENE 6 mph 10 mph 88% 0.09 in 0 W/m2
01:30 15.8 °F 12.9 °F 29.94 in ENE 8 mph 12 mph 88% 0.08 in 0 W/m2
01:35 15.8 °F 12.9 °F 29.94 in North 6 mph 12 mph 88% 0.07 in 0 W/m2
01:40 15.9 °F 13 °F 29.94 in NNE 5 mph 5 mph 88% 0.07 in 0 W/m2
01:45 15.9 °F 13 °F 29.95 in NE 5 mph 5 mph 88% 0.06 in 0 W/m2
01:50 16 °F 13.1 °F 29.95 in NW 5 mph 5 mph 88% 0.05 in 0 W/m2
01:55 16.1 °F 13.2 °F 29.95 in North 4 mph 10 mph 88% 0.05 in 0 W/m2
02:00 16.1 °F 13.2 °F 29.94 in NNW 5 mph 5 mph 88% 0.06 in 0 W/m2
02:05 16.1 °F 13.2 °F 29.95 in NNW 5 mph 5 mph 88% 0.06 in 0 W/m2
02:10 16.1 °F 13.2 °F 29.96 in North 4 mph 4 mph 88% 0.05 in 0 W/m2
02:15 16.1 °F 13.2 °F 29.97 in ENE 4 mph 10 mph 88% 0.05 in 0 W/m2
02:20 15.9 °F 13 °F 29.96 in North 4 mph 4 mph 88% 0.05 in 0 W/m2
02:25 15.9 °F 13 °F 29.95 in NE 5 mph 9 mph 88% 0.05 in 0 W/m2
02:30 15.7 °F 12.8 °F 29.94 in NE 5 mph 5 mph 88% 0.07 in 0 W/m2
02:35 15.7 °F 12.8 °F 29.93 in North 5 mph 8 mph 88% 0.07 in 0 W/m2
02:40 15.6 °F 12.7 °F 29.93 in NNE 4 mph 4 mph 88% 0.07 in 0 W/m2
02:45 15.5 °F 12.6 °F 29.93 in NE 5 mph 5 mph 88% 0.11 in 0 W/m2
02:50 15.4 °F 12.5 °F 29.93 in NNE 5 mph 5 mph 88% 0.08 in 0 W/m2
02:55 15.4 °F 12.5 °F 29.94 in North 5 mph 5 mph 88% 0.08 in 0 W/m2
03:00 15.4 °F 12.5 °F 29.93 in North 5 mph 5 mph 88% 0.08 in 0 W/m2
03:05 15.4 °F 12.5 °F 29.93 in NNE 4 mph 5 mph 88% 0.10 in 0 W/m2
03:10 15.4 °F 12.5 °F 29.93 in SSE 4 mph 4 mph 88% 0.10 in 0 W/m2
03:15 15.5 °F 12.6 °F 29.92 in NNE 4 mph 4 mph 88% 0.08 in 0 W/m2
03:20 15.5 °F 12.6 °F 29.93 in NE 5 mph 5 mph 88% 0.09 in 0 W/m2
03:25 15.5 °F 12.6 °F 29.93 in North 5 mph 5 mph 88% 0.10 in 0 W/m2
03:30 15.5 °F 12.6 °F 29.93 in NE 4 mph 6 mph 88% 0.11 in 0 W/m2
03:35 15.6 °F 12.7 °F 29.92 in NNE 5 mph 13 mph 88% 0.11 in 0 W/m2
03:40 15.6 °F 12.7 °F 29.92 in North 6 mph 8 mph 88% 0.09 in 0 W/m2
03:45 15.6 °F 12.7 °F 29.92 in NNE 6 mph 8 mph 88% 0.13 in 0 W/m2
03:50 15.6 °F 12.7 °F 29.92 in NE 5 mph 5 mph 88% 0.07 in 0 W/m2
03:55 15.6 °F 12.7 °F 29.92 in ENE 6 mph 6 mph 88% 0.10 in 0 W/m2
04:00 15.7 °F 12.8 °F 29.91 in North 7 mph 8 mph 88% 0.10 in 0 W/m2
04:05 15.7 °F 12.8 °F 29.91 in NNE 7 mph 10 mph 88% 0.07 in 0 W/m2
04:10 15.8 °F 12.9 °F 29.91 in NE 7 mph 7 mph 88% 0.10 in 0 W/m2
04:15 15.8 °F 13.1 °F 29.91 in NE 6 mph 7 mph 89% 0.10 in 0 W/m2
04:20 15.9 °F 13 °F 29.90 in NE 6 mph 10 mph 88% 0.08 in 0 W/m2
04:25 15.9 °F 13 °F 29.90 in NE 6 mph 10 mph 88% 0.09 in 0 W/m2
04:30 15.9 °F 13 °F 29.90 in NNE 7 mph 9 mph 88% 0.09 in 0 W/m2
04:35 15.8 °F 12.9 °F 29.90 in NNE 7 mph 9 mph 88% 0.07 in 0 W/m2
04:40 15.8 °F 12.9 °F 29.90 in NNE 8 mph 8 mph 88% 0.07 in 0 W/m2
04:45 15.7 °F 12.8 °F 29.89 in North 8 mph 8 mph 88% 0.06 in 0 W/m2
04:50 15.7 °F 12.8 °F 29.90 in NE 7 mph 9 mph 88% 0.06 in 0 W/m2
04:55 15.7 °F 12.8 °F 29.90 in North 7 mph 9 mph 88% 0.05 in 0 W/m2
05:00 15.6 °F 12.7 °F 29.89 in North 8 mph 12 mph 88% 0.05 in 0 W/m2
05:05 15.6 °F 12.7 °F 29.90 in NE 7 mph 12 mph 88% 0.06 in 0 W/m2
05:10 15.6 °F 12.7 °F 29.90 in NE 7 mph 7 mph 88% 0.06 in 0 W/m2
05:15 15.7 °F 13 °F 29.89 in NNE 7 mph 10 mph 89% 0.05 in 0 W/m2
05:20 15.7 °F 13 °F 29.89 in NE 7 mph 7 mph 89% 0.04 in 0 W/m2
05:25 15.7 °F 12.8 °F 29.89 in NNE 6 mph 7 mph 88% 0.04 in 0 W/m2
05:30 15.7 °F 12.8 °F 29.89 in NNW 6 mph 8 mph 88% 0.04 in 0 W/m2
05:35 15.7 °F 12.8 °F 29.89 in NE 7 mph 8 mph 88% 0.04 in 0 W/m2
05:40 15.7 °F 12.8 °F 29.89 in NE 7 mph 7 mph 88% 0.00 in 0 W/m2
05:45 15.7 °F 13 °F 29.89 in NE 7 mph 7 mph 89% 0.00 in 0 W/m2
05:50 15.8 °F 13.1 °F 29.89 in WNW 7 mph 8 mph 89% 0.00 in 0 W/m2
05:55 15.8 °F 13.1 °F 29.90 in North 8 mph 8 mph 89% 0.00 in 0 W/m2
06:00 15.8 °F 13.1 °F 29.90 in North 8 mph 8 mph 89% 0.00 in 0 W/m2
06:05 15.8 °F 12.9 °F 29.90 in NE 8 mph 8 mph 88% 0.00 in 0 W/m2
06:10 15.7 °F 12.8 °F 29.90 in NE 8 mph 11 mph 88% 0.00 in 0 W/m2
06:15 15.6 °F 12.7 °F 29.89 in NNE 8 mph 11 mph 88% 0.00 in 0 W/m2
06:20 15.6 °F 12.7 °F 29.89 in NNW 8 mph 9 mph 88% 0.05 in 0 W/m2
06:25 15.6 °F 12.7 °F 29.89 in NNW 8 mph 13 mph 88% 0.05 in 0 W/m2
06:30 15.5 °F 12.6 °F 29.89 in North 8 mph 11 mph 88% 0.04 in 0 W/m2
06:35 15.5 °F 12.6 °F 29.89 in North 8 mph 11 mph 88% 0.04 in 0 W/m2
06:40 15.4 °F 12.5 °F 29.89 in NNE 7 mph 10 mph 88% 0.04 in 0 W/m2
06:45 15.3 °F 12.4 °F 29.89 in NNE 7 mph 10 mph 88% 0.04 in 0 W/m2
06:50 15.3 °F 12.4 °F 29.89 in North 7 mph 7 mph 88% 0.00 in 0 W/m2
06:55 15.3 °F 12.4 °F 29.89 in NE 7 mph 7 mph 88% 0.00 in 0 W/m2
07:00 15.2 °F 12.3 °F 29.88 in North 7 mph 12 mph 88% 0.00 in 0 W/m2
07:05 15.1 °F 12.2 °F 29.88 in NNE 8 mph 12 mph 88% 0.00 in 0 W/m2
07:10 15.1 °F 12.2 °F 29.88 in East 8 mph 10 mph 88% 0.00 in 0 W/m2
07:15 15.1 °F 12.2 °F 29.88 in NE 8 mph 10 mph 88% 0.00 in 0 W/m2
07:20 15.1 °F 12.2 °F 29.89 in ENE 7 mph 8 mph 88% 0.00 in 0 W/m2
07:25 15.1 °F 12.2 °F 29.89 in NNE 7 mph 8 mph 88% 0.00 in 0 W/m2
07:30 15 °F 12.1 °F 29.89 in NNE 7 mph 9 mph 88% 0.00 in 5 W/m2
07:35 15 °F 12.1 °F 29.89 in NE 7 mph 9 mph 88% 0.00 in 7 W/m2
07:40 15 °F 12.1 °F 29.89 in NNW 8 mph 8 mph 88% 0.00 in 9 W/m2
07:45 14.9 °F 12 °F 29.89 in NE 7 mph 8 mph 88% 0.00 in 11 W/m2
07:50 14.8 °F 11.9 °F 29.90 in North 7 mph 7 mph 88% 0.00 in 18 W/m2
07:55 14.8 °F 11.9 °F 29.90 in NNW 6 mph 7 mph 88% 0.00 in 23 W/m2
08:00 14.9 °F 12 °F 29.90 in NE 6 mph 6 mph 88% 0.00 in 33 W/m2
08:05 14.9 °F 12 °F 29.90 in ENE 7 mph 7 mph 88% 0.00 in 40 W/m2
08:10 15 °F 12.1 °F 29.90 in NNE 7 mph 12 mph 88% 0.00 in 47 W/m2
08:15 15.1 °F 12.2 °F 29.90 in North 7 mph 12 mph 88% 0.00 in 54 W/m2
08:20 15.1 °F 12.2 °F 29.90 in NE 7 mph 7 mph 88% 0.00 in 60 W/m2
08:25 15.1 °F 12.2 °F 29.90 in North 6 mph 7 mph 88% 0.00 in 95 W/m2
08:30 15.3 °F 12.4 °F 29.90 in NNE 6 mph 8 mph 88% 0.00 in 79 W/m2
08:35 15.4 °F 12.5 °F 29.91 in NNE 6 mph 9 mph 88% 0.00 in 77 W/m2
08:40 15.4 °F 12.5 °F 29.91 in NNE 6 mph 6 mph 88% 0.00 in 70 W/m2
08:45 15.4 °F 12.5 °F 29.91 in NE 6 mph 10 mph 88% 0.00 in 90 W/m2
08:50 15.5 °F 12.6 °F 29.91 in North 6 mph 6 mph 88% 0.00 in 97 W/m2
08:55 15.5 °F 12.6 °F 29.92 in NE 6 mph 6 mph 88% 0.00 in 100 W/m2
09:00 15.7 °F 12.8 °F 29.92 in North 6 mph 6 mph 88% 0.00 in 120 W/m2
09:05 15.7 °F 12.8 °F 29.92 in North 6 mph 12 mph 88% 0.00 in 113 W/m2
09:10 15.9 °F 13 °F 29.92 in North 6 mph 8 mph 88% 0.00 in 130 W/m2
09:15 16.1 °F 13.2 °F 29.92 in NNE 6 mph 8 mph 88% 0.00 in 132 W/m2
09:20 16.1 °F 13.2 °F 29.92 in NNW 7 mph 7 mph 88% 0.00 in 144 W/m2
09:25 16.1 °F 13.2 °F 29.92 in NNE 7 mph 7 mph 88% 0.00 in 151 W/m2
09:30 16.1 °F 13.2 °F 29.92 in NNE 6 mph 8 mph 88% 0.00 in 148 W/m2
09:35 16.1 °F 13.2 °F 29.93 in NNE 6 mph 8 mph 88% 0.00 in 172 W/m2
09:40 16.2 °F 13.3 °F 29.92 in SW 7 mph 7 mph 88% 0.00 in 185 W/m2
09:45 16.2 °F 13.3 °F 29.93 in NNE 7 mph 7 mph 88% 0.00 in 192 W/m2
09:50 16.3 °F 13.4 °F 29.93 in North 6 mph 6 mph 88% 0.00 in 204 W/m2
09:55 16.3 °F 13.1 °F 29.93 in NNE 6 mph 6 mph 87% 0.00 in 200 W/m2
10:00 16.4 °F 13.2 °F 29.93 in NE 6 mph 10 mph 87% 0.00 in 218 W/m2
10:05 16.4 °F 13.2 °F 29.92 in NE 7 mph 10 mph 87% 0.00 in 232 W/m2
10:10 16.5 °F 13.3 °F 29.92 in North 7 mph 9 mph 87% 0.00 in 241 W/m2
10:15 16.6 °F 13.4 °F 29.92 in NE 6 mph 9 mph 87% 0.00 in 246 W/m2
10:20 16.6 °F 13.4 °F 29.92 in NE 6 mph 6 mph 87% 0.00 in 239 W/m2
10:25 16.8 °F 13.6 °F 29.92 in NE 5 mph 6 mph 87% 0.00 in 258 W/m2
10:30 16.9 °F 13.4 °F 29.92 in North 5 mph 5 mph 86% 0.00 in 265 W/m2
10:35 17 °F 13.5 °F 29.93 in North 5 mph 8 mph 86% 0.00 in 301 W/m2
10:40 17.1 °F 13.6 °F 29.93 in North 5 mph 5 mph 86% 0.00 in 330 W/m2
10:45 17.4 °F 13.9 °F 29.93 in NNW 5 mph 9 mph 86% 0.00 in 302 W/m2
10:50 17.6 °F 14.1 °F 29.93 in NW 5 mph 5 mph 86% 0.00 in 350 W/m2
10:55 17.7 °F 14 °F 29.93 in North 7 mph 7 mph 85% 0.00 in 309 W/m2
11:00 17.7 °F 14 °F 29.93 in NNE 7 mph 7 mph 85% 0.00 in 279 W/m2
11:05 17.3 °F 13.3 °F 29.93 in NNW 7 mph 10 mph 84% 0.00 in 276 W/m2
11:10 16.9 °F 12.9 °F 29.93 in NNW 8 mph 8 mph 84% 0.00 in 288 W/m2
11:15 16.6 °F 12.6 °F 29.93 in NNW 9 mph 9 mph 84% 0.00 in 311 W/m2
11:20 16.4 °F 12.4 °F 29.93 in North 9 mph 9 mph 84% 0.00 in 287 W/m2
11:25 16.3 °F 12.6 °F 29.94 in NNW 9 mph 9 mph 85% 0.00 in 334 W/m2
11:30 16.4 °F 12.7 °F 29.94 in NNW 8 mph 10 mph 85% 0.00 in 346 W/m2
11:35 16.4 °F 12.7 °F 29.94 in NNW 7 mph 12 mph 85% 0.00 in 341 W/m2
11:40 16.5 °F 12.5 °F 29.94 in NNE 8 mph 8 mph 84% 0.00 in 369 W/m2
11:45 16.6 °F 12.6 °F 29.94 in NNW 8 mph 16 mph 84% 0.00 in 381 W/m2
11:50 16.8 °F 12.8 °F 29.95 in NNW 7 mph 7 mph 84% 0.00 in 401 W/m2
11:55 17 °F 13 °F 29.95 in North 8 mph 8 mph 84% 0.00 in 410 W/m2
12:00 17.1 °F 13.1 °F 29.95 in NNW 7 mph 9 mph 84% 0.00 in 418 W/m2
12:05 17.3 °F 13.3 °F 29.95 in North 7 mph 9 mph 84% 0.00 in 401 W/m2
12:10 17.4 °F 13.1 °F 29.96 in NNE 7 mph 9 mph 83% 0.00 in 411 W/m2
12:15 17.5 °F 13.2 °F 29.96 in North 6 mph 9 mph 83% 0.00 in 439 W/m2
12:20 17.8 °F 13.2 °F 29.96 in North 6 mph 10 mph 82% 0.00 in 454 W/m2
12:25 18 °F 13.4 °F 29.97 in NNW 6 mph 10 mph 82% 0.06 in 534 W/m2
12:30 18.3 °F 13.4 °F 29.96 in NNE 7 mph 7 mph 81% 0.12 in 508 W/m2
12:35 18.6 °F 13.7 °F 29.97 in North 7 mph 11 mph 81% 0.07 in 520 W/m2
12:40 18.9 °F 13.7 °F 29.97 in NNW 7 mph 7 mph 80% 0.05 in 478 W/m2
12:45 19.1 °F 13.7 °F 29.97 in NNW 7 mph 10 mph 79% 0.05 in 420 W/m2
12:55 19.4 °F 13.7 °F 29.97 in NNE 6 mph 6 mph 78% 0.00 in 499 W/m2
13:00 19.7 °F 13.7 °F 29.97 in North 6 mph 6 mph 77% 0.00 in 541 W/m2
13:05 20.3 °F 13.9 °F 29.97 in WNW 5 mph 6 mph 76% 0.00 in 638 W/m2
13:10 20.9 °F 13.9 °F 29.97 in NNW 5 mph 5 mph 74% 0.00 in 543 W/m2
13:15 21.1 °F 14.1 °F 29.97 in NW 5 mph 11 mph 74% 0.00 in 362 W/m2
13:20 21.1 °F 13.8 °F 29.98 in NW 4 mph 6 mph 73% 0.00 in 679 W/m2
13:25 21.1 °F 13.2 °F 29.98 in NNW 5 mph 6 mph 71% 0.00 in 485 W/m2
13:30 21.2 °F 13.6 °F 29.98 in West 5 mph 5 mph 72% 0.00 in 622 W/m2
13:35 21.8 °F 13.5 °F 29.99 in NW 4 mph 5 mph 70% 0.00 in 657 W/m2
13:40 22.3 °F 14.6 °F 29.99 in NNW 4 mph 4 mph 72% 0.00 in 726 W/m2
13:45 22.4 °F 14.1 °F 29.99 in NNW 4 mph 4 mph 70% 0.00 in 538 W/m2
13:50 22.5 °F 14.5 °F 29.99 in NW 4 mph 4 mph 71% 0.00 in 568 W/m2
13:55 22.5 °F 13.9 °F 29.99 in North 4 mph 10 mph 69% 0.00 in 343 W/m2
14:00 22.3 °F 13.3 °F 30.00 in NW 4 mph 7 mph 68% 0.00 in 584 W/m2
14:05 22.1 °F 12.8 °F 30.00 in NNW 5 mph 7 mph 67% 0.00 in 577 W/m2
14:10 22.3 °F 13.7 °F 30.00 in NNW 4 mph 4 mph 69% 0.00 in 728 W/m2
14:15 22.8 °F 14.8 °F 30.01 in NW 4 mph 4 mph 71% 0.00 in 413 W/m2
14:20 23 °F 14.3 °F 30.01 in North 4 mph 4 mph 69% 0.00 in 480 W/m2
14:25 23.1 °F 14.1 °F 30.01 in WNW 4 mph 12 mph 68% 0.00 in 396 W/m2
14:30 22.8 °F 13.5 °F 30.02 in NW 4 mph 4 mph 67% 0.00 in 547 W/m2
14:35 22.6 °F 13.3 °F 30.02 in WNW 5 mph 5 mph 67% 0.00 in 381 W/m2
14:40 22.5 °F 13.5 °F 30.02 in North 4 mph 6 mph 68% 0.00 in 448 W/m2
14:45 22.2 °F 13.2 °F 30.03 in NNW 5 mph 12 mph 68% 0.00 in 436 W/m2
14:50 21.7 °F 12.4 °F 30.03 in NNW 6 mph 6 mph 67% 0.00 in 357 W/m2
14:55 21.1 °F 11.8 °F 30.03 in WNW 6 mph 9 mph 67% 0.00 in 316 W/m2
15:00 20.5 °F 11.6 °F 30.03 in North 6 mph 6 mph 68% 0.00 in 304 W/m2
15:05 20.4 °F 11.8 °F 30.03 in NNW 4 mph 6 mph 69% 0.00 in 301 W/m2
15:10 20.3 °F 12.1 °F 30.04 in North 3 mph 3 mph 70% 0.00 in 306 W/m2
15:15 20.4 °F 12.5 °F 30.04 in NNW 3 mph 3 mph 71% 0.00 in 390 W/m2
15:20 20.6 °F 12 °F 30.04 in NNW 3 mph 5 mph 69% 0.00 in 292 W/m2
15:25 20.5 °F 11.6 °F 30.05 in NNW 4 mph 5 mph 68% 0.00 in 278 W/m2
15:30 20.2 °F 11 °F 30.05 in NW 5 mph 6 mph 67% 0.00 in 262 W/m2
15:35 19.9 °F 11 °F 30.05 in WNW 4 mph 7 mph 68% 0.00 in 258 W/m2
15:40 19.6 °F 10.7 °F 30.06 in WNW 4 mph 4 mph 68% 0.00 in 243 W/m2
15:45 19.3 °F 10.5 °F 30.06 in WNW 5 mph 7 mph 68% 0.00 in 234 W/m2
15:50 19.1 °F 10.6 °F 30.06 in NNW 6 mph 6 mph 69% 0.00 in 236 W/m2
15:55 18.7 °F 10.2 °F 30.07 in NW 6 mph 6 mph 69% 0.00 in 229 W/m2
16:00 18.3 °F 9.8 °F 30.07 in WNW 5 mph 5 mph 69% 0.00 in 163 W/m2
16:05 18.1 °F 10 °F 30.07 in NW 5 mph 8 mph 70% 0.00 in 274 W/m2
16:10 18.3 °F 9.8 °F 30.07 in West 4 mph 4 mph 69% 0.00 in 253 W/m2
16:15 18.5 °F 10 °F 30.07 in NW 4 mph 4 mph 69% 0.00 in 271 W/m2
16:20 18.7 °F 10.2 °F 30.08 in NNW 4 mph 4 mph 69% 0.00 in 223 W/m2
16:25 18.6 °F 9.8 °F 30.08 in NW 4 mph 7 mph 68% 0.00 in 230 W/m2
16:30 18.6 °F 10.4 °F 30.08 in NW 4 mph 4 mph 70% 0.00 in 264 W/m2
16:35 18.6 °F 10.1 °F 30.08 in NNW 3 mph 4 mph 69% 0.00 in 253 W/m2
16:40 18.7 °F 10.2 °F 30.08 in NW 3 mph 3 mph 69% 0.00 in 241 W/m2
16:45 18.8 °F 11.3 °F 30.08 in NNW 3 mph 3 mph 72% 0.00 in 225 W/m2
16:50 18.7 °F 10.2 °F 30.09 in WNW 2 mph 4 mph 69% 0.00 in 209 W/m2
16:55 18.6 °F 9.8 °F 30.09 in NNW 2 mph 4 mph 68% 0.00 in 195 W/m2
17:00 18.4 °F 9.9 °F 30.09 in West 2 mph 3 mph 69% 0.00 in 181 W/m2
17:05 18.1 °F 9 °F 30.09 in WNW 2 mph 3 mph 67% 0.00 in 162 W/m2
17:10 17.9 °F 9.4 °F 30.09 in WNW 1 mph 1 mph 69% 0.00 in 125 W/m2
17:15 17.3 °F 7.9 °F 30.09 in WNW 1 mph 1 mph 66% 0.00 in 79 W/m2
17:20 16.8 °F 7.4 °F 30.09 in WNW 1 mph 1 mph 66% 0.00 in 62 W/m2
17:25 16.1 °F 6.7 °F 30.10 in WNW 2 mph 2 mph 66% 0.00 in 56 W/m2
17:30 15.5 °F 7.1 °F 30.10 in WNW 2 mph 2 mph 69% 0.00 in 47 W/m2
17:35 15.3 °F 8.2 °F 30.10 in West 2 mph 2 mph 73% 0.00 in 53 W/m2
17:40 14.6 °F 6.6 °F 30.10 in West 1 mph 1 mph 70% 0.00 in 40 W/m2
17:45 13.9 °F 5.6 °F 30.10 in West 1 mph 1 mph 69% 0.00 in 35 W/m2
17:50 13.1 °F 4.8 °F 30.11 in West 1 mph 2 mph 69% 0.00 in 23 W/m2
17:55 12.9 °F 5.9 °F 30.11 in West 2 mph 2 mph 73% 0.00 in 12 W/m2
18:00 12.4 °F 5.7 °F 30.11 in SW 2 mph 2 mph 74% 0.00 in 9 W/m2
18:05 11.9 °F 4.9 °F 30.11 in SW 1 mph 2 mph 73% 0.00 in 7 W/m2
18:10 11.2 °F 3.9 °F 30.12 in SW 1 mph 2 mph 72% 0.00 in 5 W/m2
18:15 10.8 °F 3.8 °F 30.12 in SW 2 mph 2 mph 73% 0.00 in 0 W/m2
18:20 10.5 °F 4.1 °F 30.12 in SW 2 mph 2 mph 75% 0.00 in 0 W/m2
18:25 10.2 °F 4.1 °F 30.13 in SSW 2 mph 2 mph 76% 0.00 in 0 W/m2
18:30 9.8 °F 3.7 °F 30.13 in SW 2 mph 4 mph 76% 0.00 in 0 W/m2
18:35 9.4 °F 3.1 °F 30.13 in SW 2 mph 4 mph 75% 0.00 in 0 W/m2
18:40 9.1 °F 2.8 °F 30.13 in SSW 2 mph 3 mph 75% 0.00 in 0 W/m2
18:45 8.8 °F 2.2 °F 30.14 in SSW 2 mph 3 mph 74% 0.00 in 0 W/m2
18:50 8.5 °F 2.2 °F 30.14 in SSW 2 mph 2 mph 75% 0.00 in 0 W/m2
18:55 8.3 °F 2 °F 30.14 in SSW 2 mph 2 mph 75% 0.00 in 0 W/m2
19:00 8.1 °F 1.8 °F 30.15 in SSW 2 mph 2 mph 75% 0.00 in 0 W/m2
19:05 7.8 °F 1.2 °F 30.15 in SSW 2 mph 2 mph 74% 0.00 in 0 W/m2
19:10 7.6 °F 1.3 °F 30.15 in SSW 2 mph 2 mph 75% 0.00 in 0 W/m2
19:15 7.3 °F 0.7 °F 30.15 in SSW 2 mph 2 mph 74% 0.00 in 0 W/m2
19:20 7 °F 0.5 °F 30.15 in SSW 2 mph 2 mph 74% 0.00 in 0 W/m2
19:25 6.7 °F 0.5 °F 30.15 in SSW 2 mph 2 mph 75% 0.00 in 0 W/m2
19:30 6.4 °F 0.2 °F 30.15 in SSW 2 mph 2 mph 75% 0.00 in 0 W/m2
19:35 6 °F -0.2 °F 30.16 in SSW 2 mph 2 mph 75% 0.00 in 0 W/m2
19:40 5.7 °F -0.5 °F 30.16 in SSW 2 mph 3 mph 75% 0.00 in 0 W/m2
19:45 5.5 °F -0.1 °F 30.17 in SW 2 mph 3 mph 77% 0.00 in 0 W/m2
19:50 5.3 °F -0.3 °F 30.17 in SSW 2 mph 3 mph 77% 0.00 in 0 W/m2
19:55 5.1 °F -0.5 °F 30.17 in SSW 2 mph 3 mph 77% 0.00 in 0 W/m2
20:00 4.9 °F -0.7 °F 30.17 in SSW 2 mph 2 mph 77% 0.00 in 0 W/m2
20:05 4.7 °F -0.9 °F 30.17 in SSW 1 mph 2 mph 77% 0.00 in 0 W/m2
20:10 4.4 °F -1.2 °F 30.17 in SSW 1 mph 1 mph 77% 0.00 in 0 W/m2
20:15 4.2 °F -1.4 °F 30.17 in SSW 1 mph 1 mph 77% 0.00 in 0 W/m2
20:20 4 °F -1.6 °F 30.17 in SSW 1 mph 1 mph 77% 0.00 in 0 W/m2
20:25 3.8 °F -1.8 °F 30.17 in SSW 1 mph 1 mph 77% 0.00 in 0 W/m2
20:30 3.6 °F -2 °F 30.18 in SSW 1 mph 1 mph 77% 0.00 in 0 W/m2
20:35 3.3 °F -2.3 °F 30.18 in SSW 1 mph 1 mph 77% 0.00 in 0 W/m2
20:40 3.1 °F -2.5 °F 30.18 in SSW 1 mph 1 mph 77% 0.00 in 0 W/m2
20:45 3.1 °F -2.2 °F 30.19 in SW 2 mph 2 mph 78% 0.00 in 0 W/m2
20:50 3 °F -2 °F 30.19 in WSW 2 mph 2 mph 79% 0.00 in 0 W/m2
20:55 3 °F -2 °F 30.19 in WSW 2 mph 2 mph 79% 0.00 in 0 W/m2
21:00 3.1 °F -1.7 °F 30.19 in WSW 2 mph 2 mph 80% 0.00 in 0 W/m2
21:05 3.3 °F -1.2 °F 30.19 in WSW 2 mph 5 mph 81% 0.00 in 0 W/m2
21:10 3.5 °F -1 °F 30.20 in WSW 3 mph 4 mph 81% 0.00 in 0 W/m2
21:15 3.7 °F -0.6 °F 30.20 in SW 4 mph 4 mph 82% 0.00 in 0 W/m2
21:20 3.9 °F -0.4 °F 30.20 in WSW 4 mph 5 mph 82% 0.00 in 0 W/m2
21:25 4.1 °F -0.2 °F 30.20 in WSW 4 mph 5 mph 82% 0.00 in 0 W/m2
21:30 4.2 °F -0.1 °F 30.21 in WSW 4 mph 4 mph 82% 0.00 in 0 W/m2
21:35 4.3 °F 0 °F 30.21 in West 4 mph 4 mph 82% 0.00 in 0 W/m2
21:40 4.3 °F 0 °F 30.21 in West 3 mph 6 mph 82% 0.00 in 0 W/m2
21:45 4.2 °F -0.3 °F 30.21 in West 3 mph 6 mph 81% 0.00 in 0 W/m2
21:50 4.1 °F -0.4 °F 30.21 in WSW 3 mph 3 mph 81% 0.00 in 0 W/m2
21:55 4 °F -0.5 °F 30.21 in WSW 2 mph 3 mph 81% 0.00 in 0 W/m2
22:00 4 °F -0.5 °F 30.21 in West 2 mph 4 mph 81% 0.00 in 0 W/m2
22:05 4 °F -0.5 °F 30.21 in WSW 2 mph 5 mph 81% 0.00 in 0 W/m2
22:10 4 °F -0.3 °F 30.21 in West 2 mph 6 mph 82% 0.00 in 0 W/m2
22:15 4.1 °F -0.2 °F 30.21 in West 3 mph 6 mph 82% 0.00 in 0 W/m2
22:20 4.2 °F -0.1 °F 30.21 in West 2 mph 2 mph 82% 0.00 in 0 W/m2
22:25 4.3 °F 0 °F 30.22 in West 1 mph 2 mph 82% 0.00 in 0 W/m2
22:30 4.4 °F 0.1 °F 30.22 in West 1 mph 1 mph 82% 0.00 in 0 W/m2
22:35 4.4 °F 0.1 °F 30.22 in West 1 mph 1 mph 82% 0.00 in 0 W/m2
22:40 4.5 °F 0.2 °F 30.22 in WSW 2 mph 2 mph 82% 0.00 in 0 W/m2
22:45 4.5 °F 0.2 °F 30.22 in West 2 mph 2 mph 82% 0.00 in 0 W/m2
22:50 4.5 °F 0 °F 30.22 in West 2 mph 2 mph 81% 0.00 in 0 W/m2
22:55 4.4 °F -0.1 °F 30.22 in West 1 mph 2 mph 81% 0.00 in 0 W/m2
23:00 4.3 °F -0.2 °F 30.22 in West 1 mph 2 mph 81% 0.00 in 0 W/m2
23:05 4.1 °F -0.4 °F 30.23 in West 1 mph 2 mph 81% 0.00 in 0 W/m2
23:10 3.6 °F -1.5 °F 30.23 in West 1 mph 2 mph 79% 0.00 in 0 W/m2
23:15 2.7 °F -3.1 °F 30.23 in West 2 mph 2 mph 76% 0.00 in 0 W/m2
23:20 2.1 °F -4 °F 30.23 in West 2 mph 3 mph 75% 0.00 in 0 W/m2
23:25 1.5 °F -4.9 °F 30.23 in WSW 2 mph 3 mph 74% 0.00 in 0 W/m2
23:30 0.9 °F -5.5 °F 30.23 in WSW 3 mph 3 mph 74% 0.00 in 0 W/m2
23:35 0.1 °F -6.2 °F 30.23 in WSW 2 mph 3 mph 74% 0.00 in 0 W/m2
23:40 -0.3 °F -6.6 °F 30.24 in SW 2 mph 2 mph 74% 0.00 in 0 W/m2
23:45 -0.5 °F -6.5 °F 30.24 in SW 2 mph 2 mph 75% 0.00 in 0 W/m2
23:50 -0.8 °F -6.8 °F 30.24 in SW 2 mph 3 mph 75% 0.00 in 0 W/m2
23:55 -1.1 °F -7.1 °F 30.24 in SW 2 mph 3 mph 75% 0.00 in 0 W/m2
Sand Point, Michigan, USA
Compliments of Weather Underground - 2 mb